Solon, Iowa
Current Conditions -  °F | °C
As of 9:09 AM on Sunday 21 Dec 2014 (Local Time) from KCID Reporting Station
Haze Haze  
Wind Chill: 28°   Ceiling: 2400
Heat Index: 37°   Visibility: 5mi
Dew Point: 35°   Wind: 14mph
Humidity: 93%   Direction: 170°S
Pressure: 30.03"   Gusts: 23mph
Location:  41.81°N, 91.49°W
Report Text: KCID 211509Z 17012G20KT 5SM BR BKN024 OVC034 03/02 A3003 RMK AO2 T00280017 $
Loading
Personal Weather Stations






























Interactive Weather Map New forecast layout! Learn more

10-Day Weather Forecast

Advertisements
Track Severe Weather on mobile